createdAt,value
2018-11-05T00:00:36.823Z,19.20
2018-11-05T00:03:05.735Z,20.43
2018-11-05T00:05:34.239Z,20.70
2018-11-05T00:08:02.758Z,19.70
2018-11-05T00:10:31.259Z,21.33
2018-11-05T00:12:59.834Z,21.53
2018-11-05T00:15:28.371Z,21.50
2018-11-05T00:17:56.883Z,19.07
2018-11-05T00:20:25.399Z,21.63
2018-11-05T00:22:53.891Z,18.73
2018-11-05T00:25:22.392Z,20.53
2018-11-05T00:27:50.884Z,18.03
2018-11-05T00:30:19.388Z,18.30
2018-11-05T00:32:47.865Z,19.47
2018-11-05T00:35:16.382Z,17.60
2018-11-05T00:37:44.880Z,17.47
2018-11-05T00:40:14.424Z,19.57
2018-11-05T00:42:43.619Z,19.70
2018-11-05T00:45:12.502Z,18.30
2018-11-05T00:47:41.517Z,18.33
2018-11-05T00:50:11.202Z,18.70
2018-11-05T00:52:39.791Z,17.40
2018-11-05T00:55:09.108Z,17.23
2018-11-05T00:57:37.606Z,18.67
2018-11-05T01:00:09.081Z,17.23
2018-11-05T01:02:37.793Z,14.77
2018-11-05T01:05:06.780Z,17.13
2018-11-05T01:07:35.290Z,17.00
2018-11-05T01:10:04.879Z,17.07
2018-11-05T01:12:33.371Z,15.40
2018-11-05T01:15:01.882Z,14.70
2018-11-05T01:17:30.383Z,16.37
2018-11-05T01:19:58.878Z,15.33
2018-11-05T01:22:27.400Z,15.20
2018-11-05T01:24:55.892Z,15.00
2018-11-05T01:27:24.403Z,14.90
2018-11-05T01:29:52.916Z,15.90
2018-11-05T01:32:21.426Z,15.47
2018-11-05T01:34:49.965Z,15.70
2018-11-05T01:37:18.705Z,16.33
2018-11-05T01:39:47.208Z,15.27
2018-11-05T01:42:15.703Z,15.37
2018-11-05T01:44:44.201Z,16.43
2018-11-05T01:47:12.735Z,15.33
2018-11-05T01:49:41.253Z,15.00
2018-11-05T01:52:09.775Z,15.17
2018-11-05T01:54:38.292Z,15.80
2018-11-05T01:57:06.815Z,14.33
2018-11-05T01:59:35.334Z,13.87
2018-11-05T02:02:03.863Z,15.13
2018-11-05T02:04:32.370Z,15.77
2018-11-05T02:07:00.877Z,14.00
2018-11-05T02:09:29.400Z,14.80
2018-11-05T02:11:57.898Z,14.67
2018-11-05T02:14:26.410Z,13.13
2018-11-05T02:16:54.906Z,13.70
2018-11-05T02:19:23.416Z,13.33
2018-11-05T02:21:51.944Z,14.37
2018-11-05T02:24:20.462Z,14.03
2018-11-05T02:26:48.965Z,13.67
2018-11-05T02:29:17.463Z,14.07
2018-11-05T02:31:45.962Z,14.17
2018-11-05T02:34:14.477Z,13.63
2018-11-05T02:36:43.012Z,13.43
2018-11-05T02:39:11.505Z,13.60
2018-11-05T02:41:40.002Z,13.90
2018-11-05T02:44:08.514Z,11.77
2018-11-05T02:46:37.007Z,13.73
2018-11-05T02:49:05.517Z,13.50
2018-11-05T02:51:34.034Z,13.93
2018-11-05T02:54:02.557Z,13.57
2018-11-05T02:56:31.115Z,12.77
2018-11-05T02:58:59.639Z,13.57
2018-11-05T03:01:28.129Z,13.67
2018-11-05T03:03:56.647Z,13.20
2018-11-05T03:06:25.167Z,12.77
2018-11-05T03:08:53.663Z,12.10
2018-11-05T03:11:22.164Z,14.03
2018-11-05T03:13:50.684Z,13.53
2018-11-05T03:16:19.242Z,12.87
2018-11-05T03:18:47.779Z,13.03
2018-11-05T03:21:16.267Z,14.47
2018-11-05T03:23:44.850Z,13.57
2018-11-05T03:26:13.324Z,14.77
2018-11-05T03:28:41.847Z,14.47
2018-11-05T03:31:10.331Z,12.20
2018-11-05T03:33:38.883Z,14.10
2018-11-05T03:36:07.411Z,13.63
2018-11-05T03:38:35.979Z,12.77
2018-11-05T03:41:04.597Z,13.80
2018-11-05T03:43:33.097Z,14.23
2018-11-05T03:46:01.611Z,12.03
2018-11-05T03:48:30.136Z,13.83
2018-11-05T03:50:58.659Z,14.53
2018-11-05T03:53:27.163Z,13.97
2018-11-05T03:55:55.714Z,13.63
2018-11-05T03:58:24.208Z,14.90
2018-11-05T04:00:52.726Z,14.67
2018-11-05T04:03:21.263Z,13.97
2018-11-05T04:05:49.724Z,13.13
2018-11-05T04:08:18.225Z,13.33
2018-11-05T04:10:46.748Z,13.50
2018-11-05T04:13:15.281Z,14.00
2018-11-05T04:15:43.932Z,12.70
2018-11-05T04:18:12.375Z,13.93
2018-11-05T04:20:40.881Z,14.87
2018-11-05T04:23:09.418Z,14.97
2018-11-05T04:25:37.924Z,13.00
2018-11-05T04:28:06.529Z,13.57
2018-11-05T04:30:35.031Z,14.20
2018-11-05T04:33:04.541Z,12.23
2018-11-05T04:35:33.053Z,13.83
2018-11-05T04:38:01.563Z,14.90
2018-11-05T04:40:30.076Z,14.43
2018-11-05T04:42:58.599Z,13.57
2018-11-05T04:45:27.118Z,14.30
2018-11-05T04:47:55.618Z,13.63
2018-11-05T04:50:24.115Z,16.43
2018-11-05T04:52:52.604Z,13.70
2018-11-05T04:55:21.126Z,15.00
2018-11-05T04:57:49.633Z,14.03
2018-11-05T05:00:18.600Z,14.93
2018-11-05T05:02:47.128Z,13.97
2018-11-05T05:05:16.275Z,13.07
2018-11-05T05:07:44.824Z,13.87
2018-11-05T05:10:13.429Z,13.87
2018-11-05T05:12:42.851Z,13.97
2018-11-05T05:15:11.760Z,13.27
2018-11-05T05:17:40.704Z,15.07
2018-11-05T05:20:10.766Z,13.80
2018-11-05T05:22:39.487Z,12.03
2018-11-05T05:25:07.854Z,15.00
2018-11-05T05:27:36.350Z,14.80
2018-11-05T05:30:07.015Z,14.17
2018-11-05T05:32:35.496Z,13.03
2018-11-05T05:35:04.464Z,12.20
2018-11-05T05:37:32.947Z,14.70
2018-11-05T05:40:01.501Z,14.70
2018-11-05T05:42:29.991Z,14.20
2018-11-05T05:44:58.780Z,13.60
2018-11-05T05:47:27.247Z,14.90
2018-11-05T05:49:55.807Z,13.67
2018-11-05T05:52:24.293Z,13.73
2018-11-05T05:54:52.820Z,14.10
2018-11-05T05:57:21.331Z,14.60
2018-11-05T05:59:49.931Z,15.27
2018-11-05T06:02:18.351Z,13.93
2018-11-05T06:04:46.870Z,12.70
2018-11-05T06:07:15.380Z,14.10
2018-11-05T06:09:43.937Z,14.03
2018-11-05T06:12:12.520Z,15.17
2018-11-05T06:14:41.051Z,12.13
2018-11-05T06:17:09.580Z,12.23
2018-11-05T06:19:38.191Z,13.60
2018-11-05T06:22:07.398Z,12.57
2018-11-05T06:24:35.903Z,12.37
2018-11-05T06:27:04.411Z,13.57
2018-11-05T06:29:32.900Z,13.00
2018-11-05T06:32:01.416Z,14.93
2018-11-05T06:34:29.913Z,14.43
2018-11-05T06:36:58.427Z,13.33
2018-11-05T06:39:26.939Z,15.37
2018-11-05T06:41:55.562Z,15.53
2018-11-05T06:44:23.990Z,14.37
2018-11-05T06:46:52.525Z,14.57
2018-11-05T06:49:21.037Z,12.53
2018-11-05T06:51:49.660Z,14.10
2018-11-05T06:54:18.167Z,14.30
2018-11-05T06:56:46.683Z,14.37
2018-11-05T06:59:15.222Z,15.93
2018-11-05T07:01:43.719Z,17.37
2018-11-05T07:04:12.393Z,15.73
2018-11-05T07:06:40.888Z,14.27
2018-11-05T07:09:09.896Z,15.47
2018-11-05T07:11:38.729Z,15.20
2018-11-05T07:14:07.811Z,17.47
2018-11-05T07:16:36.646Z,17.47
2018-11-05T07:19:05.538Z,16.80
2018-11-05T07:21:33.826Z,16.57
2018-11-05T07:24:02.367Z,15.27
2018-11-05T07:26:30.927Z,15.60
2018-11-05T07:28:59.380Z,14.80
2018-11-05T07:31:27.870Z,15.53
2018-11-05T07:33:56.584Z,15.37
2018-11-05T07:36:24.899Z,16.80
2018-11-05T07:38:53.403Z,14.60
2018-11-05T07:41:21.950Z,16.63
2018-11-05T07:43:50.447Z,18.73
2018-11-05T07:46:18.964Z,17.43
2018-11-05T07:48:47.488Z,15.70
2018-11-05T07:51:15.984Z,14.43
2018-11-05T07:53:44.499Z,15.23
2018-11-05T07:56:13.070Z,18.47
2018-11-05T07:58:41.523Z,17.77
2018-11-05T08:01:10.063Z,17.17
2018-11-05T08:03:38.604Z,17.50
2018-11-05T08:06:07.125Z,19.60
2018-11-05T08:08:35.644Z,19.80
2018-11-05T08:11:04.300Z,18.47
2018-11-05T08:13:32.800Z,16.70
2018-11-05T08:16:01.327Z,19.47
2018-11-05T08:18:29.830Z,18.97
2018-11-05T08:20:58.322Z,20.63
2018-11-05T08:23:26.845Z,15.50
2018-11-05T08:25:55.329Z,15.40
2018-11-05T08:28:23.832Z,18.73
2018-11-05T08:30:52.368Z,17.60
2018-11-05T08:33:20.866Z,16.67
2018-11-05T08:35:49.367Z,17.57
2018-11-05T08:38:17.872Z,14.27
2018-11-05T08:40:46.394Z,17.80
2018-11-05T08:43:14.938Z,20.10
2018-11-05T08:45:43.430Z,19.73
2018-11-05T08:48:11.979Z,19.90
2018-11-05T08:50:40.574Z,17.03
2018-11-05T08:53:09.113Z,20.00
2018-11-05T08:55:37.658Z,19.92
2018-11-05T08:58:06.175Z,19.33
2018-11-05T09:01:41.920Z,19.33
2018-11-05T09:04:10.459Z,17.47
2018-11-05T09:06:38.970Z,21.40
2018-11-05T09:09:07.829Z,20.90
2018-11-05T09:11:37.052Z,20.23
2018-11-05T09:14:05.221Z,18.87
2018-11-05T09:16:33.719Z,18.33
2018-11-05T09:19:02.212Z,18.70
2018-11-05T09:21:30.748Z,19.20
2018-11-05T09:23:59.276Z,18.23
2018-11-05T09:26:27.765Z,18.57
2018-11-05T09:28:56.316Z,20.10
2018-11-05T09:31:24.828Z,19.67
2018-11-05T09:33:53.312Z,20.93
2018-11-05T09:36:21.973Z,19.03
2018-11-05T09:38:50.485Z,19.17
2018-11-05T09:41:19.001Z,20.60
2018-11-05T09:43:47.506Z,20.23
2018-11-05T09:46:16.014Z,19.90
2018-11-05T09:48:44.510Z,19.03
2018-11-05T09:51:13.059Z,18.80
2018-11-05T09:53:41.544Z,19.47
2018-11-05T09:56:10.055Z,20.07
2018-11-05T09:58:38.559Z,21.80
2018-11-05T10:01:07.090Z,18.97
2018-11-05T10:03:41.409Z,19.57
2018-11-05T10:06:09.755Z,19.20
2018-11-05T10:08:38.257Z,18.73
2018-11-05T10:11:07.728Z,20.33
2018-11-05T10:13:36.211Z,18.03
2018-11-05T10:16:05.104Z,17.77
2018-11-05T10:18:33.612Z,17.90
2018-11-05T10:21:02.097Z,17.80
2018-11-05T10:23:30.627Z,19.03
2018-11-05T10:25:59.108Z,17.67
2018-11-05T10:28:27.610Z,18.17
2018-11-05T10:30:56.127Z,18.77
2018-11-05T10:33:24.661Z,19.33
2018-11-05T10:35:54.918Z,20.70
2018-11-05T10:38:23.635Z,18.73
2018-11-05T10:40:52.132Z,17.37
2018-11-05T10:43:20.705Z,20.07
2018-11-05T10:45:49.254Z,17.37
2018-11-05T10:48:17.764Z,19.23
2018-11-05T10:50:46.316Z,18.93
2018-11-05T10:53:14.815Z,17.23
2018-11-05T10:55:43.324Z,17.47
2018-11-05T10:58:11.875Z,19.30
2018-11-05T11:00:45.771Z,18.10
2018-11-05T11:03:16.520Z,18.13
2018-11-05T11:05:45.059Z,19.20
2018-11-05T11:08:13.596Z,19.03
2018-11-05T11:10:42.101Z,18.47
2018-11-05T11:13:10.622Z,17.43
2018-11-05T11:15:39.115Z,20.17
2018-11-05T11:18:07.665Z,18.37
2018-11-05T11:20:36.206Z,15.80
2018-11-05T11:23:04.894Z,19.77
2018-11-05T11:25:33.460Z,18.47
2018-11-05T11:28:02.045Z,18.10
2018-11-05T11:30:30.535Z,20.37
2018-11-05T11:32:59.105Z,19.57
2018-11-05T11:35:27.625Z,18.20
2018-11-05T11:37:56.182Z,18.73
2018-11-05T11:40:24.755Z,19.97
2018-11-05T11:42:53.308Z,19.50
2018-11-05T11:45:23.119Z,19.17
2018-11-05T11:47:51.622Z,18.57
2018-11-05T11:50:20.389Z,19.13
2018-11-05T11:52:49.319Z,16.87
2018-11-05T11:55:18.942Z,18.43
2018-11-05T11:57:47.601Z,18.70
2018-11-05T12:00:19.611Z,19.73
2018-11-05T12:02:48.806Z,18.00
2018-11-05T12:05:17.324Z,19.87
2018-11-05T12:07:45.825Z,19.13
2018-11-05T12:10:20.577Z,20.43
2018-11-05T12:12:49.121Z,20.45
2018-11-05T12:15:18.568Z,19.53
2018-11-05T12:17:48.121Z,20.63
2018-11-05T12:20:17.782Z,22.00
2018-11-05T12:22:46.984Z,20.97
2018-11-05T12:25:15.512Z,20.70
2018-11-05T12:27:44.019Z,20.63
2018-11-05T12:30:15.322Z,22.30
2018-11-05T12:32:44.721Z,23.43
2018-11-05T12:35:13.401Z,20.00
2018-11-05T12:37:43.219Z,20.70
2018-11-05T12:40:13.331Z,18.93
2018-11-05T12:42:42.544Z,20.77
2018-11-05T12:45:11.208Z,20.67
2018-11-05T12:47:40.039Z,18.63
2018-11-05T12:50:09.466Z,19.83
2018-11-05T12:52:37.980Z,20.20
2018-11-05T12:55:06.863Z,20.57
2018-11-05T12:57:35.388Z,18.73
2018-11-05T13:00:04.496Z,20.57
2018-11-05T13:02:33.007Z,20.50
2018-11-05T13:05:01.559Z,19.80
2018-11-05T13:07:30.160Z,20.87
2018-11-05T13:09:58.671Z,21.90
2018-11-05T13:12:27.180Z,19.53
2018-11-05T13:14:55.813Z,18.97
2018-11-05T13:17:24.324Z,17.40
2018-11-05T13:19:52.824Z,17.70
2018-11-05T13:22:21.533Z,17.10
2018-11-05T13:24:49.906Z,17.77
2018-11-05T13:27:18.490Z,19.10
2018-11-05T13:29:47.027Z,18.97
2018-11-05T13:32:15.562Z,17.93
2018-11-05T13:34:44.093Z,18.20
2018-11-05T13:37:12.803Z,18.37
2018-11-05T13:39:41.148Z,17.93
2018-11-05T13:42:09.648Z,17.80
2018-11-05T13:44:38.159Z,17.93
2018-11-05T13:47:07.181Z,18.13
2018-11-05T13:49:35.290Z,18.07
2018-11-05T13:52:03.776Z,18.73
2018-11-05T13:54:32.428Z,17.97
2018-11-05T13:57:00.865Z,17.90
2018-11-05T13:59:29.357Z,19.07
2018-11-05T14:01:57.851Z,17.13
2018-11-05T14:04:26.378Z,18.27
2018-11-05T14:06:54.924Z,19.10
2018-11-05T14:09:23.447Z,18.60
2018-11-05T14:11:51.971Z,18.60
2018-11-05T14:14:20.483Z,20.10
2018-11-05T14:16:49.051Z,21.17
2018-11-05T14:19:17.589Z,18.47
2018-11-05T14:21:46.106Z,19.07
2018-11-05T14:24:14.695Z,19.93
2018-11-05T14:26:43.259Z,19.20
2018-11-05T14:29:12.885Z,21.23
2018-11-05T14:31:41.739Z,21.80
2018-11-05T14:34:10.293Z,18.00
2018-11-05T14:36:39.079Z,20.63
2018-11-05T14:39:08.526Z,18.10
2018-11-05T14:41:37.057Z,16.57
2018-11-05T14:44:05.574Z,19.93
2018-11-05T14:46:34.165Z,21.27
2018-11-05T14:49:02.804Z,20.13
2018-11-05T14:51:31.417Z,20.10
2018-11-05T14:54:00.002Z,20.30
2018-11-05T14:56:28.548Z,21.07
2018-11-05T14:58:57.226Z,17.73
2018-11-05T15:01:25.785Z,22.07
2018-11-05T15:03:54.302Z,21.77
2018-11-05T15:06:22.871Z,23.40
2018-11-05T15:08:51.505Z,19.53
2018-11-05T15:11:20.019Z,19.60
2018-11-05T15:13:48.535Z,21.10
2018-11-05T15:16:17.049Z,22.37
2018-11-05T15:18:45.738Z,20.40
2018-11-05T15:21:14.296Z,21.00
2018-11-05T15:23:42.669Z,17.77
2018-11-05T15:26:11.232Z,19.33
2018-11-05T15:28:39.711Z,21.10
2018-11-05T15:31:08.214Z,20.50
2018-11-05T15:33:36.827Z,18.73
2018-11-05T15:36:05.343Z,19.47
2018-11-05T15:38:33.869Z,19.80
2018-11-05T15:41:02.432Z,19.77
2018-11-05T15:43:30.967Z,19.37
2018-11-05T15:45:59.526Z,19.23
2018-11-05T15:48:28.040Z,19.37
2018-11-05T15:50:56.608Z,20.43
2018-11-05T15:53:25.582Z,19.43
2018-11-05T15:55:53.620Z,19.97
2018-11-05T15:58:22.143Z,19.93
2018-11-05T16:00:50.693Z,17.97
2018-11-05T16:03:19.241Z,20.67
2018-11-05T16:05:47.761Z,17.80
2018-11-05T16:08:16.294Z,18.10
2018-11-05T16:10:44.820Z,18.10
2018-11-05T16:13:13.319Z,18.70
2018-11-05T16:15:41.935Z,21.30
2018-11-05T16:18:10.496Z,19.80
2018-11-05T16:20:39.018Z,19.40
2018-11-05T16:23:07.754Z,19.97
2018-11-05T16:25:36.751Z,24.07
2018-11-05T16:28:05.705Z,23.63
2018-11-05T16:30:34.708Z,21.57
2018-11-05T16:33:03.948Z,20.17
2018-11-05T16:35:32.500Z,29.30
2018-11-05T16:38:00.976Z,21.33
2018-11-05T16:40:29.501Z,24.53
2018-11-05T16:42:58.030Z,27.53
2018-11-05T16:45:26.564Z,26.27
2018-11-05T16:47:55.077Z,24.60
2018-11-05T16:50:24.603Z,23.87
2018-11-05T16:52:53.438Z,22.40
2018-11-05T16:55:21.979Z,25.77
2018-11-05T16:57:50.583Z,22.57
2018-11-05T17:00:19.064Z,18.50
2018-11-05T17:02:48.630Z,21.67
2018-11-05T17:05:16.876Z,22.30
2018-11-05T17:07:45.407Z,22.43
2018-11-05T17:10:14.630Z,20.17
2018-11-05T17:12:44.259Z,20.80
2018-11-05T17:15:13.943Z,19.57
2018-11-05T17:17:43.560Z,20.50
2018-11-05T17:23:05.136Z,21.23
2018-11-05T17:25:33.692Z,21.73
2018-11-05T17:28:02.213Z,20.47
2018-11-05T17:30:30.768Z,22.73
2018-11-05T17:32:59.275Z,19.53
2018-11-05T17:35:27.826Z,22.63
2018-11-05T17:37:56.343Z,21.27
2018-11-05T17:40:24.898Z,20.70
2018-11-05T17:42:53.539Z,20.43
2018-11-05T17:45:22.054Z,20.67
2018-11-05T17:47:50.720Z,21.47
2018-11-05T17:50:20.537Z,23.30
2018-11-05T17:52:49.048Z,21.73
2018-11-05T17:55:18.418Z,19.83
2018-11-05T17:57:47.683Z,28.43
2018-11-05T18:00:17.633Z,49.07
2018-11-05T18:02:46.134Z,26.20
2018-11-05T18:05:14.969Z,21.67
2018-11-05T18:07:43.682Z,20.97
2018-11-05T18:10:13.150Z,18.53
2018-11-05T18:12:41.713Z,20.03
2018-11-05T18:15:11.119Z,22.33
2018-11-05T18:17:41.309Z,18.93
2018-11-05T18:20:10.725Z,22.67
2018-11-05T18:22:39.273Z,22.30
2018-11-05T18:25:09.334Z,24.53
2018-11-05T18:27:37.920Z,23.17
2018-11-05T18:30:06.911Z,22.17
2018-11-05T18:32:35.424Z,27.90
2018-11-05T18:35:05.041Z,19.77
2018-11-05T18:37:33.597Z,19.97
2018-11-05T18:40:02.141Z,25.17
2018-11-05T18:42:30.621Z,27.70
2018-11-05T18:44:59.169Z,20.53
2018-11-05T18:47:28.450Z,23.30
2018-11-05T18:49:57.157Z,24.90
2018-11-05T18:52:26.127Z,20.73
2018-11-05T18:54:54.702Z,23.07
2018-11-05T18:57:23.184Z,23.05
2018-11-05T18:59:52.572Z,21.97
2018-11-05T19:02:26.719Z,22.23
2018-11-05T19:04:55.192Z,19.40
2018-11-05T19:07:23.761Z,19.87
2018-11-05T19:09:53.557Z,22.33
2018-11-05T19:12:22.078Z,19.60
2018-11-05T19:14:52.871Z,24.93
2018-11-05T19:17:21.371Z,22.70
2018-11-05T19:19:49.969Z,22.87
2018-11-05T19:22:18.553Z,22.90
2018-11-05T19:24:47.024Z,23.47
2018-11-05T19:27:15.539Z,20.63
2018-11-05T19:29:44.109Z,22.17
2018-11-05T19:32:12.875Z,19.70
2018-11-05T19:34:41.432Z,22.50
2018-11-05T19:37:09.980Z,21.93
2018-11-05T19:39:38.515Z,21.77
2018-11-05T19:42:07.142Z,20.50
2018-11-05T19:44:35.624Z,23.13
2018-11-05T19:47:04.930Z,23.60
2018-11-05T19:49:33.499Z,23.23
2018-11-05T19:52:02.021Z,23.97
2018-11-05T19:54:30.595Z,19.87
2018-11-05T19:56:59.116Z,21.17
2018-11-05T19:59:27.644Z,21.57
2018-11-05T20:01:56.160Z,22.83
2018-11-05T20:04:24.693Z,23.50
2018-11-05T20:06:53.316Z,21.90
2018-11-05T20:09:21.790Z,23.73
2018-11-05T20:11:50.332Z,20.77
2018-11-05T20:14:18.860Z,22.23
2018-11-05T20:16:47.430Z,23.43
2018-11-05T20:19:16.108Z,23.63
2018-11-05T20:21:44.473Z,23.53
2018-11-05T20:24:12.983Z,22.50
2018-11-05T20:26:41.614Z,30.53
2018-11-05T20:29:10.153Z,22.80
2018-11-05T20:31:38.905Z,23.23
2018-11-05T20:34:07.623Z,22.37
2018-11-05T20:36:35.960Z,24.27
2018-11-05T20:39:06.384Z,25.73
2018-11-05T20:41:34.891Z,20.57
2018-11-05T20:44:03.426Z,25.00
2018-11-05T20:46:31.993Z,18.40
2018-11-05T20:49:00.555Z,22.43
2018-11-05T20:51:29.060Z,21.50
2018-11-05T20:53:58.286Z,22.33
2018-11-05T20:56:26.801Z,24.33
2018-11-05T20:58:55.319Z,21.53
2018-11-05T21:01:23.911Z,18.17
2018-11-05T21:03:52.424Z,19.23
2018-11-05T21:06:20.947Z,22.47
2018-11-05T21:08:49.460Z,24.37
2018-11-05T21:11:17.973Z,25.10
2018-11-05T21:13:46.481Z,16.80
2018-11-05T21:16:15.034Z,30.70
2018-11-05T21:18:43.558Z,19.70
2018-11-05T21:21:12.061Z,21.97
2018-11-05T21:23:40.589Z,25.10
2018-11-05T21:26:09.143Z,25.63
2018-11-05T21:28:37.669Z,23.60
2018-11-05T21:31:06.199Z,24.30
2018-11-05T21:33:34.699Z,26.07
2018-11-05T21:36:03.996Z,24.93
2018-11-05T21:38:33.269Z,27.80
2018-11-05T21:41:01.762Z,22.77
2018-11-05T21:43:30.302Z,30.87
2018-11-05T21:45:58.871Z,27.90
2018-11-05T21:48:27.372Z,22.10
2018-11-05T21:50:55.915Z,19.40
2018-11-05T21:53:24.524Z,23.40
2018-11-05T21:55:53.064Z,23.73
2018-11-05T21:58:21.625Z,26.70
2018-11-05T22:00:50.118Z,26.93
2018-11-05T22:03:19.138Z,27.27
2018-11-05T22:05:47.627Z,26.23
2018-11-05T22:08:16.165Z,20.50
2018-11-05T22:10:44.736Z,21.53
2018-11-05T22:13:13.272Z,20.67
2018-11-05T22:15:43.605Z,29.87
2018-11-05T22:18:12.160Z,22.07
2018-11-05T22:20:40.630Z,20.70
2018-11-05T22:23:09.138Z,24.67
2018-11-05T22:25:37.699Z,24.13
2018-11-05T22:28:06.472Z,18.83
2018-11-05T22:30:35.008Z,23.83
2018-11-05T22:33:04.468Z,21.60
2018-11-05T22:35:33.065Z,21.40
2018-11-05T22:38:01.652Z,18.03
2018-11-05T22:40:30.130Z,25.50
2018-11-05T22:42:58.625Z,24.97
2018-11-05T22:45:27.128Z,18.53
2018-11-05T22:47:55.627Z,18.47
2018-11-05T22:50:24.172Z,17.30
2018-11-05T22:52:52.644Z,23.40
2018-11-05T22:55:21.161Z,16.87
2018-11-05T22:57:49.689Z,19.17
2018-11-05T23:00:23.535Z,20.80
2018-11-05T23:02:57.542Z,21.53
2018-11-05T23:05:26.083Z,21.00
2018-11-05T23:07:55.513Z,17.63
2018-11-05T23:10:24.121Z,23.87
2018-11-05T23:12:52.638Z,20.60
2018-11-05T23:15:21.500Z,21.00
2018-11-05T23:17:50.793Z,22.83
2018-11-05T23:20:19.286Z,21.70
2018-11-05T23:22:47.757Z,21.70
2018-11-05T23:25:16.272Z,22.00
2018-11-05T23:27:44.789Z,16.17
2018-11-05T23:30:13.756Z,17.70
2018-11-05T23:32:42.341Z,22.43
2018-11-05T23:35:11.433Z,17.27
2018-11-05T23:37:40.647Z,17.97
2018-11-05T23:40:09.248Z,17.17
2018-11-05T23:42:38.329Z,19.30
2018-11-05T23:45:07.960Z,15.93
2018-11-05T23:47:36.527Z,16.20
2018-11-05T23:50:05.865Z,16.80
2018-11-05T23:52:34.405Z,17.93
2018-11-05T23:55:02.939Z,20.47
2018-11-05T23:57:31.440Z,20.10
2018-11-05T23:59:59.947Z,16.90
